Flight Track Log - Related Links

Times and Time Zones

All times are in EDT time to prevent confusion due to time zone crossing. See the N244A flight status page for this flight to view local times or setup timezone preferences in your user account.

Time Position Orientation Groundspeed Altitude Reporting Facility
EDT Latitude Longitude Course Direction KTS MPH feet Rate Location/Type
Mon 04:57:52 PM 43.2697 -73.6092 177° South 219 252 3,600  Level Boston Center
Mon 04:58:53 PM 43.2417 -73.6883 244° Southwest 256 295 6,600 2,951 Climbing Boston Center
Mon 04:59:54 PM 43.2364 -73.7853 266° West 261 300 9,600 2,033 Climbing Boston Center
Mon 05:00:54 PM 43.2331 -73.9019 268° West 281 323 10,700 1,041 Climbing Boston Center
Mon 05:01:55 PM 43.2353 -74.0503 271° West 364 419 11,700 1,475 Climbing Boston Center
Mon 05:02:52 PM 43.2289 -74.1869 266° West 402 463 13,600 2,441 Climbing Boston Center
Mon 05:03:53 PM 43.2264 -74.3492 269° West 402 463 16,500 2,926 Climbing Boston Center
Mon 05:04:53 PM 43.2219 -74.4917 268° West 391 450 19,500 3,223 Climbing Boston Center
Mon 05:05:54 PM 43.2172 -74.6253 267° West 376 433 23,000 3,124 Climbing Boston Center
Mon 05:06:54 PM 43.2128 -74.7478 267° West 352 405 25,800 2,339 Climbing Boston Center
Mon 05:07:52 PM 43.1936 -74.8667 258° West 336 387 27,600 1,525 Climbing Boston Center
Mon 05:08:52 PM 43.1639 -74.9936 252° West 336 387 28,800 1,339 Climbing Boston Center
Mon 05:09:53 PM 43.1336 -75.1261 253° West 349 402 30,300 1,835 Climbing Boston Center
Mon 05:10:53 PM 43.1075 -75.2586 255° West 361 415 32,500 2,430 Climbing Boston Center
Mon 05:11:54 PM 43.0794 -75.3794 252° West 355 409 35,200 1,884 Climbing Boston Center
Mon 05:12:54 PM 43.0556 -75.4919 254° West 335 386 36,300 450 Climbing Boston Center
Mon 05:13:54 PM 43.0294 -75.6158 254° West 329 379 36,100 372 Descending Boston Center
Mon 05:17:28 PM 42.7156 -75.8547 209° Southwest 394 453 38,000 416 Climbing Cleveland Center
Mon 05:18:28 PM 42.6186 -75.9269 209° Southwest 401 461 38,000  Level Cleveland Center
Mon 05:19:28 PM 42.5328 -76.0236 220° Southwest 408 470 38,000  Level Cleveland Center
Mon 05:20:28 PM 42.4989 -76.1725 253° West 408 470 38,000  Level Cleveland Center
Mon 05:21:28 PM 42.4881 -76.3281 265° West 430 495 38,000  Level Cleveland Center
Mon 05:22:28 PM 42.4747 -76.4811 263° West 424 488 38,000  Level Cleveland Center
Mon 05:23:28 PM 42.4572 -76.6372 261° West 424 488 38,000  Level Cleveland Center
Mon 05:24:28 PM 42.4417 -76.7900 262° West 424 488 38,000  Level Cleveland Center
Mon 05:25:28 PM 42.4258 -76.9458 262° West 424 488 38,000  Level Cleveland Center
Mon 05:26:28 PM 42.4033 -77.0989 259° West 424 488 38,000  Level Cleveland Center
Mon 05:27:28 PM 42.3553 -77.2367 245° Southwest 407 468 38,000  Level Cleveland Center
Mon 05:28:28 PM 42.3008 -77.3742 242° Southwest 407 468 38,000  Level Cleveland Center
Mon 05:29:28 PM 42.2525 -77.5086 244° Southwest 407 468 38,000  Level Cleveland Center
Mon 05:30:28 PM 42.2019 -77.6456 244° Southwest 407 468 38,000  Level Cleveland Center
Mon 05:31:28 PM 42.1508 -77.7767 242° Southwest 412 474 38,000  Level Cleveland Center
Mon 05:32:28 PM 42.1000 -77.9133 243° Southwest 407 468 38,000  Level Cleveland Center
Mon 05:33:28 PM 42.0467 -78.0469 242° Southwest 407 468 38,000  Level Cleveland Center
Mon 05:34:28 PM 41.9953 -78.1831 243° Southwest 412 474 38,000  Level Cleveland Center
Mon 05:35:28 PM 41.9497 -78.2994 242° Southwest 412 474 38,000  Level Cleveland Center
Mon 05:36:28 PM 41.8942 -78.4353 241° Southwest 412 474 38,000  Level Cleveland Center
Mon 05:37:28 PM 41.8422 -78.5708 243° Southwest 412 474 38,000  Level Cleveland Center
Mon 05:38:28 PM 41.7903 -78.7061 243° Southwest 412 474 38,000 -100 Level Cleveland Center
Mon 05:39:28 PM 41.7322 -78.8525 242° Southwest 412 474 37,800 -500 Descending Cleveland Center
Mon 05:40:28 PM 41.6861 -78.9733 243° Southwest 412 474 37,000 -1,050 Descending Cleveland Center
Mon 05:41:28 PM 41.6256 -79.1219 241° Southwest 412 474 35,700 -900 Descending Cleveland Center
Mon 05:42:28 PM 41.5708 -79.2592 242° Southwest 412 474 35,200 -650 Descending Cleveland Center
Mon 05:43:28 PM 41.5161 -79.3933 241° Southwest 417 480 34,400 -600 Descending Cleveland Center
Mon 05:44:28 PM 41.4611 -79.5331 242° Southwest 417 480 34,000 -900 Descending Cleveland Center
Mon 05:45:28 PM 41.4039 -79.6697 241° Southwest 417 480 32,600 -900 Descending Cleveland Center
Mon 05:46:28 PM 41.3467 -79.8086 241° Southwest 422 486 32,200 -550 Descending Cleveland Center
Mon 05:47:28 PM 41.2933 -79.9392 241° Southwest 416 479 31,500 -700 Descending Cleveland Center
Mon 05:48:28 PM 41.2458 -80.0531 241° Southwest 408 470 30,800 -750 Descending Cleveland Center
Mon 05:49:28 PM 41.1922 -80.1858 242° Southwest 403 464 30,000 -750 Descending Cleveland Center
Mon 05:50:28 PM 41.1364 -80.3183 241° Southwest 408 470 29,300 -1,050 Descending Cleveland Center
Mon 05:51:28 PM 41.0803 -80.4508 241° Southwest 413 475 27,900 -1,400 Descending Cleveland Center
Mon 05:52:28 PM 41.0239 -80.5858 241° Southwest 418 481 26,500 -950 Descending Cleveland Center
Mon 05:53:28 PM 40.9656 -80.7261 241° Southwest 423 487 26,000 -250 Descending Cleveland Center
Mon 05:54:28 PM 40.9069 -80.8661 241° Southwest 428 493 26,000 -50 Level Cleveland Center
Mon 05:55:28 PM 40.8481 -81.0058 241° Southwest 439 505 25,900 -500 Descending Cleveland Center
Mon 05:56:28 PM 40.7850 -81.1481 240° Southwest 447 514 25,000 -1,650 Descending Cleveland Center
Mon 05:57:28 PM 40.7236 -81.2872 240° Southwest 442 509 22,600 -2,300 Descending Cleveland Center
Mon 05:58:28 PM 40.6558 -81.4481 241° Southwest 442 509 20,400 -1,723 Descending Cleveland Center
Mon 06:00:43 PM 40.5425 -81.7047 240° Southwest 370 426 17,000 -1,036 Descending Indianapolis Center
Mon 06:01:45 PM 40.4894 -81.8264 240° Southwest 377 434 17,000  Level Indianapolis Center
Mon 06:02:47 PM 40.4219 -81.9847 241° Southwest 417 480 17,000  Level Indianapolis Center
Mon 06:03:48 PM 40.3622 -82.1225 240° Southwest 429 494 17,000 -234 Level Indianapolis Center
Mon 06:04:55 PM 40.2981 -82.2692 240° Southwest 399 459 16,500 -1,328 Descending Indianapolis Center
Mon 06:05:50 PM 40.2494 -82.3658 237° Southwest 327 376 14,300 -2,168 Descending Indianapolis Center
Mon 06:06:54 PM 40.2083 -82.4594 240° Southwest 321 369 12,200 -2,281 Descending Indianapolis Center
Mon 06:07:51 PM 40.1797 -82.5578 249° West 270 311 9,700 -2,537 Descending Indianapolis Center
Mon 06:08:57 PM 40.1522 -82.6431 247° West 272 313 7,000 -2,803 Descending Indianapolis Center
Mon 06:09:53 PM 40.1272 -82.7192 247° West 219 252 4,000 -1,538 Descending Indianapolis Center
Mon 06:10:54 PM 40.1083 -82.7847 249° West 165 190 4,000 -462 Level Indianapolis Center
Mon 06:12:03 PM 40.1550 -82.8064 340° North 185 213 3,000 -443 Descending Indianapolis Center
Mon 06:12:56 PM 40.1417 -82.8556 250° West 185 213 3,100 53 Climbing Indianapolis Center
Mon 06:13:56 PM 40.0911 -82.8586 183° South 195 224 3,100 -273 Level Indianapolis Center
Mon 06:15:08 PM 40.0864 -82.9219 264° West 171 197 2,500 -621 Descending Indianapolis Center
Mon 06:15:52 PM 40.0806 -82.9689 261° West 147 169 1,900 -667 Descending Indianapolis Center
Mon 06:16:47 PM 40.0806 -83.0128 270° West 142 163 1,400 -380 Descending Indianapolis Center
Mon 06:18:14 PM 40.0769 -83.0833 266° West 146 168 1,000 -276 Descending Indianapolis Center

Login

Don't have an account? Register now (free) for customized features, flight alerts, and more!